Lavonia, Georgia
Current Conditions -  °F | °C
As of 1:35 PM on Saturday 20 Dec 2014 (Local Time) from KTOC Reporting Station
Haze Haze  
Wind Chill: 40°   Ceiling: 500
Heat Index: 44°   Visibility: 2.5mi
Dew Point: 42°   Wind: 6mph
Humidity: 96%   Direction: 50°NE
Pressure: 30.18"   Gusts: NA
Location:  34.44°N, 83.11°W
Report Text: KTOC 201835Z AUTO 05005KT 2 1/2SM BR OVC005 06/06 A3018 RMK AO2 T00640058
Loading
Personal Weather Stations






























Interactive Weather Map New forecast layout! Learn more

10-Day Weather Forecast

Advertisements
Track Severe Weather on mobile